EBCI/CRL METAR and TAF weather

Enter ICAO airport designator
Station Type Date Time Source
EBCI METAR 2021/05/11 23:20 UTC NOAA

EBCI 112320Z 20006KT 9999 FEW040 10/08 Q1012 NOSIG


Station Type Date Time Source
EBCI Decoded METAR 2021/05/11 23:20 UTC NOAA

Charleroi / Gosselies, Belgium (EBCI) 50-28N 004-27E 192M
May 11, 2021 - 07:20 PM EDT / 2021.05.11 2320 UTC
Wind: from the SSW (200 degrees) at 7 MPH (6 KT):0
Visibility: greater than 7 mile(s):0
Sky conditions: mostly clear
Temperature: 50 F (10 C)
Dew Point: 46 F (8 C)
Relative Humidity: 87%
Pressure (altimeter): 29.88 in. Hg (1012 hPa)
ob: EBCI 112320Z 20006KT 9999 FEW040 10/08 Q1012 NOSIG
cycle: 23

Station Type Date Time Source
EBCI TAF 2021/05/11 18:27 UTC NOAA

TAF EBCI 111710Z 1118/1224 25006KT 9999 FEW040 PROB40
TEMPO 1118/1121 3500 SHRA PROB30
TEMPO 1118/1120 VRB15G25KT 2000 TSRA

Example: see airport list